createdAt,value
2022-09-04T00:02:01.550Z,15.30
2022-09-04T00:05:50.665Z,15.20
2022-09-04T00:09:44.076Z,15.30
2022-09-04T00:13:29.253Z,15.20
2022-09-04T00:17:17.737Z,15.10
2022-09-04T00:21:07.531Z,15.10
2022-09-04T00:24:58.456Z,15.10
2022-09-04T00:28:44.516Z,15.10
2022-09-04T00:32:31.189Z,15.00
2022-09-04T00:36:17.212Z,15.00
2022-09-04T00:40:08.967Z,14.90
2022-09-04T00:44:08.618Z,14.90
2022-09-04T00:48:07.204Z,14.90
2022-09-04T00:52:00.245Z,14.80
2022-09-04T00:55:56.813Z,14.80
2022-09-04T00:59:57.198Z,14.80
2022-09-04T01:03:53.409Z,14.70
2022-09-04T01:07:48.105Z,14.70
2022-09-04T01:11:41.565Z,14.70
2022-09-04T01:15:35.596Z,14.80
2022-09-04T01:19:32.195Z,14.80
2022-09-04T01:23:35.433Z,14.80
2022-09-04T01:27:26.674Z,14.80
2022-09-04T01:31:23.171Z,14.80
2022-09-04T01:35:15.929Z,14.80
2022-09-04T01:39:02.100Z,14.70
2022-09-04T01:42:51.714Z,14.70
2022-09-04T01:46:47.376Z,14.70
2022-09-04T01:50:32.923Z,14.60
2022-09-04T01:54:28.492Z,14.60
2022-09-04T01:58:19.879Z,14.60
2022-09-04T02:02:09.122Z,14.60
2022-09-04T02:06:03.441Z,14.70
2022-09-04T02:09:56.200Z,14.70
2022-09-04T02:13:53.796Z,14.80
2022-09-04T02:17:44.466Z,14.90
2022-09-04T02:21:31.838Z,14.90
2022-09-04T02:25:23.842Z,14.80
2022-09-04T02:29:16.310Z,14.80
2022-09-04T02:33:08.781Z,14.80
2022-09-04T02:36:57.748Z,14.70
2022-09-04T02:40:48.126Z,14.60
2022-09-04T02:44:45.032Z,14.60
2022-09-04T02:48:35.154Z,14.50
2022-09-04T02:52:33.520Z,14.40
2022-09-04T02:56:26.389Z,14.40
2022-09-04T03:00:15.439Z,14.30
2022-09-04T03:04:11.758Z,14.30
2022-09-04T03:08:00.565Z,14.30
2022-09-04T03:11:48.633Z,14.20
2022-09-04T03:15:40.452Z,14.20
2022-09-04T03:19:28.565Z,14.20
2022-09-04T03:23:16.813Z,14.10
2022-09-04T03:27:03.476Z,14.10
2022-09-04T03:30:48.266Z,14.10
2022-09-04T03:34:40.767Z,14.10
2022-09-04T03:38:28.584Z,14.10
2022-09-04T03:42:19.873Z,14.00
2022-09-04T03:46:17.439Z,14.10
2022-09-04T03:50:11.864Z,14.10
2022-09-04T03:54:12.435Z,14.20
2022-09-04T03:58:11.625Z,14.40
2022-09-04T04:02:02.078Z,14.30
2022-09-04T04:05:54.496Z,14.30
2022-09-04T04:09:53.209Z,14.30
2022-09-04T04:13:46.593Z,14.30
2022-09-04T04:17:47.200Z,14.20
2022-09-04T04:21:39.768Z,14.20
2022-09-04T04:25:37.680Z,14.20
2022-09-04T04:29:43.555Z,14.20
2022-09-04T04:33:53.830Z,14.20
2022-09-04T04:37:51.844Z,14.20
2022-09-04T04:42:00.493Z,14.20
2022-09-04T04:45:51.640Z,14.20
2022-09-04T04:49:51.013Z,14.20
2022-09-04T04:53:41.178Z,14.20
2022-09-04T04:57:33.586Z,14.20
2022-09-04T05:01:29.010Z,14.20
2022-09-04T05:05:18.589Z,14.20
2022-09-04T05:09:08.695Z,14.20
2022-09-04T05:13:06.219Z,14.20
2022-09-04T05:16:56.249Z,14.20
2022-09-04T05:20:45.294Z,14.30
2022-09-04T05:24:36.185Z,14.30
2022-09-04T05:28:30.093Z,14.40
2022-09-04T05:32:19.741Z,14.40
2022-09-04T05:36:17.402Z,14.50
2022-09-04T05:40:05.307Z,14.60
2022-09-04T05:44:01.538Z,14.70
2022-09-04T05:47:52.927Z,14.80
2022-09-04T05:52:07.617Z,14.90
2022-09-04T05:56:20.620Z,15.00
2022-09-04T06:00:09.994Z,15.20
2022-09-04T06:04:22.281Z,15.40
2022-09-04T06:08:28.334Z,15.50
2022-09-04T06:12:37.236Z,15.70
2022-09-04T06:16:39.192Z,15.80
2022-09-04T06:20:35.525Z,16.00
2022-09-04T06:24:34.395Z,16.20
2022-09-04T06:28:33.077Z,16.30
2022-09-04T06:32:53.290Z,16.50
2022-09-04T06:36:56.613Z,16.60
2022-09-04T06:40:54.451Z,16.80
2022-09-04T06:44:48.439Z,16.90
2022-09-04T06:48:43.807Z,17.10
2022-09-04T06:52:34.063Z,17.20
2022-09-04T06:56:33.005Z,17.30
2022-09-04T07:00:18.243Z,17.50
2022-09-04T07:04:14.419Z,17.70
2022-09-04T07:08:07.290Z,17.90
2022-09-04T07:12:19.641Z,18.00
2022-09-04T07:16:13.204Z,18.10
2022-09-04T07:20:14.652Z,18.20
2022-09-04T07:24:03.605Z,18.40
2022-09-04T07:28:09.035Z,18.50
2022-09-04T07:32:00.575Z,18.60
2022-09-04T07:35:47.446Z,18.70
2022-09-04T07:39:37.202Z,18.70
2022-09-04T07:43:28.764Z,18.80
2022-09-04T07:47:18.372Z,18.80
2022-09-04T07:51:10.509Z,18.90
2022-09-04T07:55:25.015Z,18.90
2022-09-04T07:59:40.186Z,19.00
2022-09-04T08:03:37.540Z,19.20
2022-09-04T08:08:08.125Z,19.10
2022-09-04T08:12:18.152Z,19.30
2022-09-04T08:16:08.092Z,19.50
2022-09-04T08:20:02.400Z,19.50
2022-09-04T08:24:03.088Z,19.60
2022-09-04T08:28:19.921Z,19.70
2022-09-04T08:32:20.203Z,19.70
2022-09-04T08:36:10.282Z,19.90
2022-09-04T08:40:04.155Z,20.00
2022-09-04T08:44:28.068Z,20.10
2022-09-04T08:48:44.312Z,20.20
2022-09-04T08:53:03.868Z,20.30
2022-09-04T08:56:59.130Z,20.30
2022-09-04T09:01:00.124Z,20.60
2022-09-04T09:05:24.049Z,20.70
2022-09-04T09:09:28.728Z,21.10
2022-09-04T09:13:52.717Z,21.50
2022-09-04T09:17:39.564Z,21.70
2022-09-04T09:21:40.005Z,21.00
2022-09-04T09:25:27.524Z,21.20
2022-09-04T09:29:49.564Z,21.30
2022-09-04T09:33:59.013Z,21.60
2022-09-04T09:38:21.612Z,22.30
2022-09-04T09:42:32.886Z,23.20
2022-09-04T09:46:58.297Z,23.20
2022-09-04T09:51:11.723Z,22.30
2022-09-04T09:55:27.982Z,22.90
2022-09-04T09:59:36.447Z,23.10
2022-09-04T10:03:49.740Z,22.90
2022-09-04T10:08:03.841Z,22.50
2022-09-04T10:12:06.847Z,22.40
2022-09-04T10:16:19.191Z,22.20
2022-09-04T10:20:36.372Z,22.60
2022-09-04T10:24:57.504Z,22.30
2022-09-04T10:29:26.524Z,22.00
2022-09-04T10:33:31.633Z,22.20
2022-09-04T10:37:31.403Z,22.90
2022-09-04T10:41:32.274Z,22.30
2022-09-04T10:45:26.932Z,22.40
2022-09-04T10:49:36.147Z,22.20
2022-09-04T10:53:38.866Z,22.20
2022-09-04T10:57:41.129Z,22.20
2022-09-04T11:01:53.200Z,22.10
2022-09-04T11:06:18.333Z,22.50
2022-09-04T11:10:35.588Z,22.40
2022-09-04T11:14:41.268Z,22.90
2022-09-04T11:18:54.600Z,22.40
2022-09-04T11:23:28.972Z,22.70
2022-09-04T11:27:53.820Z,23.00
2022-09-04T11:32:03.011Z,23.70
2022-09-04T11:36:35.411Z,23.70
2022-09-04T11:40:47.063Z,23.50
2022-09-04T11:45:05.683Z,24.30
2022-09-04T11:49:14.485Z,24.80
2022-09-04T11:53:14.939Z,25.30
2022-09-04T11:57:12.387Z,24.80
2022-09-04T12:01:04.665Z,24.30
2022-09-04T12:05:39.546Z,23.90
2022-09-04T12:09:47.809Z,23.30
2022-09-04T12:13:52.596Z,23.20
2022-09-04T12:18:04.740Z,23.60
2022-09-04T12:22:36.386Z,23.20
2022-09-04T12:26:51.906Z,23.10
2022-09-04T12:30:50.422Z,22.80
2022-09-04T12:34:54.550Z,22.90
2022-09-04T12:39:09.608Z,23.40
2022-09-04T12:43:02.696Z,24.30
2022-09-04T12:47:13.936Z,24.40
2022-09-04T12:51:01.936Z,24.00
2022-09-04T12:54:52.876Z,24.20
2022-09-04T12:58:52.248Z,24.40
2022-09-04T13:02:46.944Z,24.20
2022-09-04T13:06:38.060Z,24.10
2022-09-04T13:10:28.855Z,24.30
2022-09-04T13:14:43.781Z,24.40
2022-09-04T13:18:48.704Z,24.70
2022-09-04T13:22:39.400Z,24.80
2022-09-04T13:26:43.143Z,24.50
2022-09-04T13:30:28.688Z,24.10
2022-09-04T13:34:19.193Z,23.90
2022-09-04T13:38:18.397Z,24.20
2022-09-04T13:42:14.910Z,24.20
2022-09-04T13:46:02.121Z,24.60
2022-09-04T13:49:49.833Z,24.20
2022-09-04T13:53:37.015Z,24.00
2022-09-04T13:57:25.919Z,23.80
2022-09-04T14:01:16.233Z,24.00
2022-09-04T14:05:07.196Z,24.10
2022-09-04T14:09:04.493Z,24.00
2022-09-04T14:13:01.923Z,24.10
2022-09-04T14:16:45.666Z,24.30
2022-09-04T14:20:34.890Z,24.50
2022-09-04T14:24:32.837Z,24.60
2022-09-04T14:28:24.513Z,24.60
2022-09-04T14:32:18.701Z,24.40
2022-09-04T14:36:12.459Z,24.20
2022-09-04T14:40:02.368Z,24.20
2022-09-04T14:44:03.709Z,24.50
2022-09-04T14:47:53.661Z,24.00
2022-09-04T14:51:40.736Z,24.10
2022-09-04T14:55:27.570Z,24.30
2022-09-04T14:59:21.233Z,24.30
2022-09-04T15:03:09.730Z,24.00
2022-09-04T15:07:12.356Z,24.10
2022-09-04T15:11:00.532Z,23.70
2022-09-04T15:14:47.513Z,23.50
2022-09-04T15:18:40.532Z,23.60
2022-09-04T15:22:30.507Z,23.60
2022-09-04T15:26:23.001Z,23.50
2022-09-04T15:30:09.913Z,23.70
2022-09-04T15:34:01.693Z,23.70
2022-09-04T15:37:48.428Z,23.70
2022-09-04T15:41:38.741Z,23.50
2022-09-04T15:45:25.859Z,23.50
2022-09-04T15:49:22.040Z,23.50
2022-09-04T15:53:16.346Z,23.50
2022-09-04T15:57:06.132Z,23.20
2022-09-04T16:01:13.264Z,23.10
2022-09-04T16:05:19.471Z,23.20
2022-09-04T16:09:10.557Z,23.00
2022-09-04T16:12:59.194Z,22.90
2022-09-04T16:16:46.563Z,23.00
2022-09-04T16:20:37.423Z,23.00
2022-09-04T16:24:30.419Z,23.00
2022-09-04T16:28:16.203Z,23.10
2022-09-04T16:31:59.401Z,23.10
2022-09-04T16:35:44.737Z,23.00
2022-09-04T16:39:32.779Z,23.20
2022-09-04T16:43:26.211Z,23.30
2022-09-04T16:47:16.386Z,23.40
2022-09-04T16:51:09.899Z,23.40
2022-09-04T16:55:13.849Z,23.40
2022-09-04T16:59:09.024Z,23.30
2022-09-04T17:02:56.321Z,23.30
2022-09-04T17:06:56.305Z,23.30
2022-09-04T17:10:45.435Z,23.20
2022-09-04T17:14:34.805Z,23.10
2022-09-04T17:18:22.130Z,23.10
2022-09-04T17:26:26.803Z,22.90
2022-09-04T17:29:08.240Z,22.70
2022-09-04T17:30:50.789Z,22.60
2022-09-04T17:40:37.803Z,22.40
2022-09-04T17:40:48.037Z,22.10
2022-09-04T17:43:27.098Z,21.80
2022-09-04T17:47:28.422Z,21.40
2022-09-04T17:51:19.282Z,21.10
2022-09-04T17:55:08.020Z,20.90
2022-09-04T17:58:55.452Z,20.80
2022-09-04T18:02:46.015Z,20.60
2022-09-04T18:06:36.707Z,20.50
2022-09-04T18:10:28.339Z,20.20
2022-09-04T18:14:18.558Z,19.90
2022-09-04T18:18:11.836Z,19.60
2022-09-04T18:22:25.063Z,19.40
2022-09-04T18:26:10.308Z,19.20
2022-09-04T18:34:50.181Z,19.00
2022-09-04T18:37:16.261Z,18.80
2022-09-04T18:38:36.035Z,18.60
2022-09-04T18:50:22.072Z,18.50
2022-09-04T18:50:37.750Z,18.40
2022-09-04T18:55:02.013Z,18.20
2022-09-04T18:58:57.365Z,18.10
2022-09-04T19:02:52.935Z,18.00
2022-09-04T19:06:39.284Z,18.00
2022-09-04T19:10:25.681Z,17.90
2022-09-04T19:14:15.390Z,17.90
2022-09-04T19:18:03.117Z,17.80
2022-09-04T19:21:57.682Z,17.80
2022-09-04T19:25:54.913Z,17.70
2022-09-04T19:29:45.929Z,17.60
2022-09-04T19:33:36.429Z,17.60
2022-09-04T19:40:27.408Z,17.50
2022-09-04T19:46:08.157Z,17.50
2022-09-04T19:46:15.286Z,17.40
2022-09-04T19:53:10.058Z,17.40
2022-09-04T19:54:03.656Z,17.40
2022-09-04T19:57:49.209Z,17.40
2022-09-04T20:01:43.356Z,17.30
2022-09-04T20:05:29.980Z,17.30
2022-09-04T20:09:20.247Z,17.20
2022-09-04T20:13:13.804Z,17.20
2022-09-04T20:17:10.050Z,17.10
2022-09-04T20:20:58.934Z,17.10
2022-09-04T20:25:01.873Z,17.10
2022-09-04T20:28:52.845Z,17.10
2022-09-04T20:32:43.197Z,17.00
2022-09-04T20:36:33.556Z,16.90
2022-09-04T20:40:27.232Z,16.90
2022-09-04T20:44:20.248Z,16.80
2022-09-04T20:52:58.763Z,16.80
2022-09-04T20:53:05.660Z,16.80
2022-09-04T20:59:32.215Z,16.70
2022-09-04T21:03:17.138Z,16.70
2022-09-04T21:05:22.359Z,16.60
2022-09-04T21:09:19.850Z,16.60
2022-09-04T21:13:14.442Z,16.50
2022-09-04T21:17:34.232Z,16.60
2022-09-04T21:21:46.857Z,16.60
2022-09-04T21:25:33.007Z,16.60
2022-09-04T21:29:46.310Z,16.50
2022-09-04T21:33:36.952Z,16.50
2022-09-04T21:37:29.455Z,16.60
2022-09-04T21:41:27.984Z,16.50
2022-09-04T21:45:28.176Z,16.50
2022-09-04T21:49:29.159Z,16.50
2022-09-04T21:53:59.885Z,16.40
2022-09-04T22:02:28.143Z,16.40
2022-09-04T22:02:51.381Z,16.40
2022-09-04T22:07:37.654Z,16.40
2022-09-04T22:13:43.201Z,16.30
2022-09-04T22:15:08.616Z,16.30
2022-09-04T22:19:16.231Z,16.30
2022-09-04T22:23:33.972Z,16.30
2022-09-04T22:28:07.859Z,16.30
2022-09-04T22:32:06.757Z,16.20
2022-09-04T22:53:30.905Z,15.80
2022-09-04T22:57:23.112Z,15.70
2022-09-04T23:01:23.210Z,15.70
2022-09-04T23:05:23.892Z,15.80
2022-09-04T23:13:59.146Z,15.80
2022-09-04T23:14:08.337Z,15.90
2022-09-04T23:20:50.183Z,15.90
2022-09-04T23:26:36.740Z,15.90
2022-09-04T23:26:58.665Z,15.90
2022-09-04T23:30:50.687Z,15.90
2022-09-04T23:34:54.739Z,16.00
2022-09-04T23:39:21.893Z,16.00
2022-09-04T23:43:18.749Z,16.10
2022-09-04T23:47:48.633Z,16.10
2022-09-04T23:51:40.812Z,16.10
2022-09-04T23:55:37.312Z,16.10
2022-09-04T23:59:40.431Z,16.00
